Time;durP1;ratioP1;P1;durP2;ratioP2;P2;SDS_P1;SDS_P2;PMS_P1;PMS_P2;Temp;Humidity;BMP_temperature;BMP_pressure;BME280_temperature;BME280_humidity;BME280_pressure;Samples;Min_cycle;Max_cycle;Signal;HPM_P1;HPM_P2
2022/08/21 00:01:26;;;;;;;7.80;5.00;;;14.80;99.90;;;;;;5040132;28;20051;-70
2022/08/21 00:03:52;;;;;;;6.97;4.45;;;14.80;99.90;;;;;;5038065;28;20131;-69
2022/08/21 00:06:19;;;;;;;8.23;5.30;;;14.80;99.90;;;;;;5044259;28;20051;-69
2022/08/21 00:08:45;;;;;;;10.38;5.95;;;14.80;99.90;;;;;;5047656;28;20502;-69
2022/08/21 00:11:11;;;;;;;9.52;4.80;;;14.80;99.90;;;;;;5046652;28;20036;-69
2022/08/21 00:13:37;;;;;;;9.02;5.30;;;14.70;99.90;;;;;;5049336;28;20041;-69
2022/08/21 00:16:03;;;;;;;8.95;4.80;;;14.70;99.90;;;;;;5043612;28;20135;-69
2022/08/21 00:18:30;;;;;;;9.40;5.18;;;14.70;99.90;;;;;;5026277;28;20044;-68
2022/08/21 00:20:55;;;;;;;8.13;4.82;;;14.70;99.90;;;;;;5044341;28;20033;-69
2022/08/21 00:23:21;;;;;;;7.43;4.75;;;14.70;99.90;;;;;;5036330;28;20459;-69
2022/08/21 00:25:47;;;;;;;7.15;4.80;;;14.70;99.90;;;;;;5043607;28;20052;-69
2022/08/21 00:28:13;;;;;;;8.15;5.15;;;14.60;99.90;;;;;;5041371;28;20045;-70
2022/08/21 00:30:40;;;;;;;10.35;5.30;;;14.60;99.90;;;;;;5046059;28;20040;-69
2022/08/21 00:33:06;;;;;;;8.05;4.82;;;14.60;99.90;;;;;;5046308;28;20044;-70
2022/08/21 00:35:36;;;;;;;8.18;4.82;;;14.60;99.90;;;;;;5028485;28;20350;-69
2022/08/21 00:38:04;;;;;;;11.18;5.72;;;14.50;99.90;;;;;;5061988;28;20056;-69
2022/08/21 00:40:52;;;;;;;8.23;4.68;;;14.50;99.90;;;;;;5045792;28;20063;-69
2022/08/21 00:43:22;;;;;;;7.35;4.47;;;14.50;99.90;;;;;;5043131;28;20036;-69
2022/08/21 00:45:48;;;;;;;10.98;5.15;;;14.50;99.90;;;;;;5047005;28;20036;-68
2022/08/21 00:48:14;;;;;;;8.13;5.03;;;14.40;99.90;;;;;;5049648;28;20051;-69
2022/08/21 00:50:52;;;;;;;9.23;4.78;;;14.50;99.90;;;;;;5045918;28;20037;-69
2022/08/21 00:53:18;;;;;;;8.55;4.90;;;14.40;99.90;;;;;;5037920;28;20072;-69
2022/08/21 00:55:45;;;;;;;8.57;5.40;;;14.40;99.90;;;;;;5048468;28;20049;-69
2022/08/21 00:58:12;;;;;;;6.28;4.63;;;14.40;99.90;;;;;;5045103;28;20060;-70
2022/08/21 01:00:41;;;;;;;9.10;6.03;;;14.40;99.90;;;;;;5044473;28;20080;-69
2022/08/21 01:03:11;;;;;;;8.50;5.30;;;14.30;99.90;;;;;;5048617;28;20104;-69
2022/08/21 01:05:37;;;;;;;9.18;5.10;;;14.40;99.90;;;;;;5048622;28;20405;-69
2022/08/21 01:08:04;;;;;;;10.27;6.00;;;14.30;99.90;;;;;;5045934;28;20048;-69
2022/08/21 01:10:30;;;;;;;9.82;5.78;;;14.30;99.90;;;;;;5028096;28;20090;-69
2022/08/21 01:12:58;;;;;;;9.27;5.63;;;14.30;99.90;;;;;;5055679;28;20124;-69
2022/08/21 01:15:31;;;;;;;7.88;5.60;;;14.20;99.90;;;;;;5052251;28;20123;-70
2022/08/21 01:17:58;;;;;;;9.50;6.00;;;14.30;99.90;;;;;;5034540;28;20053;-69
2022/08/21 01:20:23;;;;;;;10.25;6.45;;;14.20;99.90;;;;;;5049666;28;20040;-69
2022/08/21 01:22:49;;;;;;;10.85;7.10;;;14.20;99.90;;;;;;5046113;28;20036;-69
2022/08/21 01:25:16;;;;;;;10.02;6.55;;;14.20;99.90;;;;;;5036120;28;20141;-69
2022/08/21 01:27:43;;;;;;;12.80;6.80;;;14.10;99.90;;;;;;5029112;28;20318;-70
2022/08/21 01:30:27;;;;;;;10.00;6.20;;;14.20;99.90;;;;;;5051607;28;20056;-69
2022/08/21 01:32:53;;;;;;;12.27;6.97;;;14.10;99.90;;;;;;5044183;28;20067;-69
2022/08/21 01:35:20;;;;;;;11.50;6.45;;;14.10;99.90;;;;;;5051224;28;20048;-69
2022/08/21 01:37:47;;;;;;;11.00;6.75;;;14.10;99.90;;;;;;5038339;28;20084;-69
2022/08/21 01:40:17;;;;;;;8.18;6.47;;;14.10;99.90;;;;;;5047736;28;20040;-70
2022/08/21 01:42:43;;;;;;;10.07;6.97;;;14.10;99.90;;;;;;5052413;28;20549;-69
2022/08/21 01:45:10;;;;;;;12.18;8.48;;;14.00;99.90;;;;;;5029336;28;20056;-68
2022/08/21 01:47:36;;;;;;;12.63;8.52;;;14.10;99.90;;;;;;5049825;28;20044;-69
2022/08/21 01:50:07;;;;;;;15.13;9.18;;;14.00;99.90;;;;;;5047771;28;20049;-69
2022/08/21 01:52:34;;;;;;;12.45;8.80;;;14.00;99.90;;;;;;5047912;28;20090;-69
2022/08/21 01:55:00;;;;;;;11.75;9.07;;;13.90;99.90;;;;;;5047563;28;20036;-69
2022/08/21 01:57:26;;;;;;;12.90;8.68;;;13.90;99.90;;;;;;5033580;28;20136;-69
2022/08/21 01:59:52;;;;;;;11.75;8.57;;;13.90;99.90;;;;;;5029875;28;20041;-70
2022/08/21 02:02:18;;;;;;;8.90;7.70;;;13.90;99.90;;;;;;5045716;28;20033;-70
2022/08/21 02:04:43;;;;;;;14.23;9.50;;;13.80;99.90;;;;;;5042928;28;20045;-69
2022/08/21 02:07:09;;;;;;;12.18;8.27;;;13.80;99.90;;;;;;5048293;28;20053;-69
2022/08/21 02:09:34;;;;;;;11.60;8.43;;;13.80;99.90;;;;;;5047663;28;20045;-69
2022/08/21 02:12:00;;;;;;;12.18;9.05;;;13.80;99.90;;;;;;5047998;28;20068;-69
2022/08/21 02:14:26;;;;;;;11.93;7.93;;;13.80;99.90;;;;;;5029724;28;20049;-69
2022/08/21 02:16:52;;;;;;;14.80;8.73;;;13.70;99.90;;;;;;5029230;28;20037;-70
2022/08/21 02:19:18;;;;;;;15.65;9.55;;;13.70;99.90;;;;;;5042881;28;20048;-69
2022/08/21 02:21:44;;;;;;;10.82;9.18;;;13.70;99.90;;;;;;5042898;28;20492;-68
2022/08/21 02:24:11;;;;;;;10.73;7.95;;;13.70;99.90;;;;;;5039029;28;20082;-69
2022/08/21 02:26:37;;;;;;;10.40;8.30;;;13.60;99.90;;;;;;5066360;28;20465;-69
2022/08/21 02:29:04;;;;;;;14.60;7.85;;;13.60;99.90;;;;;;5031236;28;20098;-69
2022/08/21 02:31:31;;;;;;;10.30;7.93;;;13.60;99.90;;;;;;5029766;28;20084;-68
2022/08/21 02:33:57;;;;;;;8.40;7.43;;;13.50;99.90;;;;;;5043148;28;20044;-71
2022/08/21 02:36:22;;;;;;;15.38;7.22;;;13.60;99.90;;;;;;5048522;28;20041;-69
2022/08/21 02:38:49;;;;;;;12.32;7.45;;;13.50;99.90;;;;;;5048641;28;20037;-69
2022/08/21 02:41:17;;;;;;;11.30;8.25;;;13.50;99.90;;;;;;5047565;28;20044;-68
2022/08/21 02:43:44;;;;;;;8.88;8.00;;;13.50;99.90;;;;;;5027124;28;20537;-70
2022/08/21 02:46:17;;;;;;;12.65;8.68;;;13.50;99.90;;;;;;5026741;28;20041;-68
2022/08/21 02:48:43;;;;;;;11.23;8.15;;;13.40;99.90;;;;;;5043542;28;20041;-69
2022/08/21 02:51:17;;;;;;;13.98;8.90;;;13.40;99.90;;;;;;5026326;28;20056;-68
2022/08/21 02:53:44;;;;;;;11.77;8.73;;;13.40;99.90;;;;;;5044392;28;20067;-68
2022/08/21 02:56:13;;;;;;;12.25;8.73;;;13.40;99.90;;;;;;5032077;28;20040;-69
2022/08/21 02:58:42;;;;;;;11.25;9.60;;;13.40;99.90;;;;;;5027844;28;20481;-68
2022/08/21 03:01:10;;;;;;;13.45;9.43;;;13.40;99.90;;;;;;5049454;28;20487;-68
2022/08/21 03:03:41;;;;;;;10.43;8.32;;;13.40;99.90;;;;;;5033452;28;20032;-69
2022/08/21 03:06:08;;;;;;;10.18;7.75;;;13.40;99.90;;;;;;5048400;28;20061;-68
2022/08/21 03:08:34;;;;;;;13.50;8.88;;;13.30;99.90;;;;;;5042849;28;20116;-69
2022/08/21 03:11:01;;;;;;;16.25;9.80;;;13.40;99.90;;;;;;5045897;28;20040;-69
2022/08/21 03:13:27;;;;;;;12.38;8.32;;;13.30;99.90;;;;;;5034519;28;20181;-69
2022/08/21 03:15:53;;;;;;;13.75;8.95;;;13.30;99.90;;;;;;5043408;28;20040;-70
2022/08/21 03:18:19;;;;;;;14.13;8.65;;;13.30;99.90;;;;;;5051528;28;20072;-68
2022/08/21 03:20:46;;;;;;;14.10;8.35;;;13.30;99.90;;;;;;5047597;28;20460;-68
2022/08/21 03:23:12;;;;;;;13.40;9.68;;;13.30;99.90;;;;;;5046875;28;20514;-69
2022/08/21 03:25:38;;;;;;;11.65;8.23;;;13.30;99.90;;;;;;5043927;28;20071;-68
2022/08/21 03:28:06;;;;;;;10.32;8.98;;;13.30;99.90;;;;;;5043040;28;20037;-68
2022/08/21 03:30:31;;;;;;;10.55;8.18;;;13.30;99.90;;;;;;5045014;28;20135;-69
2022/08/21 03:32:58;;;;;;;12.43;8.68;;;13.30;99.90;;;;;;5044581;28;20148;-68
2022/08/21 03:35:25;;;;;;;13.25;8.70;;;13.30;99.90;;;;;;5039947;28;20374;-68
2022/08/21 03:37:51;;;;;;;12.00;8.80;;;13.20;99.90;;;;;;5045597;28;20039;-68
2022/08/21 03:40:17;;;;;;;11.30;7.80;;;13.20;99.90;;;;;;5041591;28;20140;-70
2022/08/21 03:42:46;;;;;;;11.07;8.18;;;13.20;99.90;;;;;;5043992;28;20078;-68
2022/08/21 03:45:14;;;;;;;13.13;7.57;;;13.20;99.90;;;;;;5043751;28;20094;-68
2022/08/21 03:47:55;;;;;;;9.57;7.80;;;13.20;99.90;;;;;;5029355;28;20047;-68
2022/08/21 03:50:22;;;;;;;9.93;8.27;;;13.20;99.90;;;;;;5043147;28;20073;-68
2022/08/21 03:52:48;;;;;;;12.73;8.90;;;13.20;99.90;;;;;;5046585;28;20507;-69
2022/08/21 03:55:14;;;;;;;10.18;8.40;;;13.20;99.90;;;;;;5044406;28;20049;-68
2022/08/21 03:57:39;;;;;;;11.77;9.23;;;13.20;99.90;;;;;;5038090;28;20592;-68
2022/08/21 04:00:08;;;;;;;11.93;8.95;;;13.10;99.90;;;;;;5041549;28;20048;-68
2022/08/21 04:02:34;;;;;;;13.90;8.70;;;13.10;99.90;;;;;;5042509;28;20044;-68
2022/08/21 04:04:59;;;;;;;11.63;8.07;;;13.10;99.90;;;;;;5025501;28;20037;-68
2022/08/21 04:07:25;;;;;;;10.93;8.27;;;13.10;99.90;;;;;;5042911;28;20037;-69
2022/08/21 04:09:51;;;;;;;10.05;8.18;;;13.10;99.90;;;;;;5031147;28;20401;-69
2022/08/21 04:12:17;;;;;;;12.90;8.35;;;13.10;99.90;;;;;;5027133;28;20354;-68
2022/08/21 04:14:42;;;;;;;13.23;9.30;;;13.10;99.90;;;;;;5046089;28;20534;-69
2022/08/21 04:17:08;;;;;;;11.77;8.38;;;13.10;99.90;;;;;;5044603;28;20041;-67
2022/08/21 04:19:33;;;;;;;12.68;8.40;;;13.10;99.90;;;;;;5045254;28;20174;-69
2022/08/21 04:21:59;;;;;;;13.25;9.10;;;13.10;99.90;;;;;;5044388;28;20048;-68
2022/08/21 04:24:25;;;;;;;15.15;9.70;;;13.10;99.90;;;;;;5041039;28;20040;-68
2022/08/21 04:26:50;;;;;;;13.15;9.18;;;13.10;99.90;;;;;;5044098;28;20040;-68
2022/08/21 04:29:16;;;;;;;13.18;10.25;;;13.10;99.90;;;;;;5039767;28;20551;-70
2022/08/21 04:31:43;;;;;;;12.95;8.60;;;13.10;99.90;;;;;;5026573;28;20255;-68
2022/08/21 04:34:09;;;;;;;13.00;8.32;;;13.10;99.90;;;;;;5045585;28;20062;-69
2022/08/21 04:36:35;;;;;;;13.07;8.98;;;13.10;99.90;;;;;;5035134;28;20133;-68
2022/08/21 04:39:01;;;;;;;15.10;8.65;;;13.10;99.90;;;;;;5043463;28;20456;-68
2022/08/21 04:41:28;;;;;;;15.60;9.57;;;13.10;99.90;;;;;;5046352;28;20420;-69
2022/08/21 04:43:55;;;;;;;20.63;9.80;;;13.10;99.90;;;;;;5038799;28;20045;-70
2022/08/21 04:46:21;;;;;;;14.10;9.80;;;13.10;99.90;;;;;;5035981;28;20101;-69
2022/08/21 04:48:48;;;;;;;12.38;9.07;;;13.10;99.90;;;;;;5020185;28;20140;-69
2022/08/21 04:51:24;;;;;;;10.57;8.88;;;13.10;99.90;;;;;;5039037;28;20078;-68
2022/08/21 04:53:55;;;;;;;16.42;9.35;;;13.20;99.90;;;;;;5037940;28;20052;-69
2022/08/21 04:56:22;;;;;;;11.02;8.77;;;13.20;99.90;;;;;;5025995;28;20056;-69
2022/08/21 04:58:50;;;;;;;13.45;9.88;;;13.30;99.90;;;;;;5026295;28;20053;-69
2022/08/21 05:01:20;;;;;;;13.25;9.30;;;13.30;99.90;;;;;;5045091;28;20124;-69
2022/08/21 05:03:49;;;;;;;12.90;8.90;;;13.30;99.90;;;;;;5047205;28;20048;-71
2022/08/21 05:06:16;;;;;;;15.48;9.27;;;13.40;99.90;;;;;;5050040;28;20064;-70
2022/08/21 05:08:45;;;;;;;15.63;10.18;;;13.40;99.90;;;;;;5042235;28;20067;-69
2022/08/21 05:11:11;;;;;;;11.43;8.65;;;13.40;99.90;;;;;;5041145;28;20041;-68
2022/08/21 05:13:37;;;;;;;10.15;8.48;;;13.50;99.90;;;;;;5036047;28;20401;-70
2022/08/21 05:16:03;;;;;;;13.68;10.45;;;13.50;99.90;;;;;;5042190;28;20036;-69
2022/08/21 05:18:29;;;;;;;15.80;9.38;;;13.60;99.90;;;;;;5042264;28;20060;-68
2022/08/21 05:20:54;;;;;;;15.40;9.50;;;13.70;99.90;;;;;;5028419;28;20029;-69
2022/08/21 05:23:20;;;;;;;11.88;9.40;;;13.70;99.90;;;;;;5044513;28;20120;-68
2022/08/21 05:25:46;;;;;;;15.38;9.43;;;13.80;99.90;;;;;;5043164;28;20372;-69
2022/08/21 05:28:12;;;;;;;15.23;10.05;;;13.90;99.90;;;;;;5040588;28;20058;-69
2022/08/21 05:30:38;;;;;;;13.30;9.57;;;14.00;99.90;;;;;;5062194;28;20049;-69
2022/08/21 05:33:06;;;;;;;13.52;9.32;;;14.10;99.90;;;;;;5044325;28;20505;-69
2022/08/21 05:35:32;;;;;;;10.68;8.80;;;14.20;99.90;;;;;;5032785;28;20052;-69
2022/08/21 05:37:59;;;;;;;15.10;9.43;;;14.30;99.90;;;;;;5035359;28;20072;-69
2022/08/21 05:40:25;;;;;;;11.40;8.43;;;14.50;99.90;;;;;;5044688;28;20099;-70
2022/08/21 05:42:53;;;;;;;11.70;8.70;;;14.80;99.90;;;;;;5038108;28;20063;-69
2022/08/21 05:45:19;;;;;;;12.30;8.20;;;15.10;99.90;;;;;;5043439;28;20391;-69
2022/08/21 05:47:44;;;;;;;11.00;7.65;;;15.50;99.90;;;;;;5046662;28;20115;-69
2022/08/21 05:50:10;;;;;;;10.93;7.30;;;15.90;99.90;;;;;;5046938;28;20059;-69
2022/08/21 05:52:36;;;;;;;8.68;7.43;;;16.10;99.90;;;;;;5047212;28;20056;-69
2022/08/21 05:55:02;;;;;;;11.80;7.07;;;16.40;99.90;;;;;;5044551;28;20417;-69
2022/08/21 05:57:28;;;;;;;9.60;6.25;;;16.70;99.90;;;;;;5028893;28;20064;-69
2022/08/21 05:59:54;;;;;;;9.10;6.55;;;16.80;99.90;;;;;;5033482;28;20045;-69
2022/08/21 06:02:20;;;;;;;11.18;6.65;;;16.70;99.90;;;;;;5040677;28;20056;-69
2022/08/21 06:04:47;;;;;;;11.95;6.55;;;16.60;99.90;;;;;;5051328;28;20032;-70
2022/08/21 06:07:13;;;;;;;10.25;6.30;;;16.60;99.90;;;;;;5069994;28;20036;-69
2022/08/21 06:09:39;;;;;;;11.52;6.43;;;16.60;99.90;;;;;;5044221;28;20147;-68
2022/08/21 06:12:06;;;;;;;10.02;6.10;;;16.60;99.90;;;;;;5047760;28;20041;-69
2022/08/21 06:14:32;;;;;;;10.05;6.20;;;16.70;99.90;;;;;;5047492;28;20066;-69
2022/08/21 06:17:06;;;;;;;8.70;5.80;;;16.70;99.90;;;;;;5046491;28;20048;-70
2022/08/21 06:19:32;;;;;;;11.98;5.72;;;16.80;99.90;;;;;;5024093;28;20427;-69
2022/08/21 06:21:58;;;;;;;10.23;5.90;;;16.90;99.90;;;;;;5043472;28;20041;-69
2022/08/21 06:24:24;;;;;;;13.32;6.40;;;16.90;99.90;;;;;;5039843;28;20063;-70
2022/08/21 06:26:50;;;;;;;10.40;6.10;;;17.00;99.90;;;;;;5039181;28;20025;-69
2022/08/21 06:29:19;;;;;;;12.98;5.55;;;17.10;99.90;;;;;;5048957;28;20516;-70
2022/08/21 06:31:47;;;;;;;9.25;5.38;;;17.20;99.90;;;;;;5047027;28;20036;-70
2022/08/21 06:34:13;;;;;;;11.90;6.40;;;17.30;99.90;;;;;;5044584;28;20048;-69
2022/08/21 06:36:39;;;;;;;8.65;5.20;;;17.40;99.90;;;;;;5048154;28;20438;-70
2022/08/21 06:39:05;;;;;;;11.07;4.95;;;17.50;99.90;;;;;;5044305;28;20049;-69
2022/08/21 06:41:31;;;;;;;9.07;4.82;;;17.60;99.90;;;;;;5047315;28;20431;-70
2022/08/21 06:43:57;;;;;;;12.88;4.90;;;17.70;99.90;;;;;;5043050;28;20365;-71
2022/08/21 06:46:24;;;;;;;10.82;4.80;;;17.70;99.90;;;;;;5037494;28;20106;-69
2022/08/21 06:48:50;;;;;;;9.27;4.47;;;17.80;99.90;;;;;;5043513;28;20060;-70
2022/08/21 06:51:16;;;;;;;10.77;4.88;;;18.00;99.90;;;;;;5025035;28;20052;-69
2022/08/21 06:53:41;;;;;;;11.48;5.03;;;18.10;99.90;;;;;;5050437;28;20089;-69
2022/08/21 06:56:07;;;;;;;10.80;4.60;;;18.20;99.90;;;;;;5044948;28;20052;-71
2022/08/21 06:58:33;;;;;;;9.55;4.47;;;18.30;99.90;;;;;;5030926;28;20048;-70
2022/08/21 07:00:59;;;;;;;10.23;4.57;;;18.50;99.90;;;;;;5027149;28;20053;-71
2022/08/21 07:03:44;;;;;;;12.20;3.97;;;18.60;99.90;;;;;;5047596;28;20053;-69
2022/08/21 07:06:10;;;;;;;;;;;18.80;99.90;;;;;;5040779;28;20048;-69
2022/08/21 07:08:36;;;;;;;10.30;3.75;;;18.90;99.90;;;;;;5043689;28;20039;-70
2022/08/21 07:11:06;;;;;;;9.50;3.45;;;19.00;99.90;;;;;;5045528;28;20040;-70
2022/08/21 07:13:32;;;;;;;9.13;3.25;;;19.10;99.90;;;;;;5039212;28;20110;-69
2022/08/21 07:15:58;;;;;;;10.50;3.22;;;19.30;99.90;;;;;;5043655;28;20059;-70
2022/08/21 07:18:24;;;;;;;6.97;3.42;;;19.40;99.90;;;;;;5043291;28;20041;-70
2022/08/21 07:20:50;;;;;;;13.07;3.97;;;19.60;99.90;;;;;;5048204;28;20132;-70
2022/08/21 07:23:30;;;;;;;11.38;3.63;;;19.70;99.90;;;;;;5026960;28;20424;-70
2022/08/21 07:25:56;;;;;;;9.07;2.72;;;19.90;99.90;;;;;;5039140;28;20082;-71
2022/08/21 07:28:21;;;;;;;10.57;3.10;;;20.00;99.90;;;;;;5045968;28;20519;-70
2022/08/21 07:30:52;;;;;;;11.73;3.40;;;20.10;99.90;;;;;;5056198;28;20152;-71
2022/08/21 07:33:18;;;;;;;13.15;3.33;;;20.20;99.90;;;;;;5029711;28;20067;-70
2022/08/21 07:35:44;;;;;;;12.27;3.28;;;20.40;99.90;;;;;;5039914;28;20033;-71
2022/08/21 07:38:10;;;;;;;7.95;3.25;;;20.50;99.90;;;;;;5046782;28;20057;-71
2022/08/21 07:40:35;;;;;;;11.27;3.50;;;20.70;99.90;;;;;;5043940;28;20129;-70
2022/08/21 07:43:02;;;;;;;8.45;2.90;;;20.80;99.90;;;;;;5043486;28;20068;-71
2022/08/21 07:45:28;;;;;;;12.27;3.30;;;21.00;99.90;;;;;;5049812;28;20047;-70
2022/08/21 07:47:54;;;;;;;10.68;2.58;;;21.10;99.90;;;;;;5047204;28;20048;-71
2022/08/21 07:50:19;;;;;;;9.55;3.38;;;21.40;99.90;;;;;;5025589;28;20078;-70
2022/08/21 07:52:46;;;;;;;9.20;2.50;;;21.70;99.90;;;;;;5046164;28;20041;-71
2022/08/21 07:55:15;;;;;;;10.55;5.03;;;22.20;99.90;;;;;;5044278;28;20577;-69
2022/08/21 07:57:41;;;;;;;18.38;15.32;;;22.70;99.90;;;;;;5037018;28;20053;-69
2022/08/21 08:00:10;;;;;;;13.55;4.05;;;23.30;99.90;;;;;;5042846;28;20056;-69
2022/08/21 08:02:36;;;;;;;9.52;3.50;;;23.90;99.90;;;;;;5044335;28;20484;-69
2022/08/21 08:05:04;;;;;;;9.52;2.95;;;24.40;99.90;;;;;;5026331;28;20047;-67
2022/08/21 08:07:30;;;;;;;9.40;2.95;;;25.00;99.90;;;;;;5043442;28;20033;-70
2022/08/21 08:09:56;;;;;;;11.02;3.17;;;25.60;99.90;;;;;;5047449;28;20029;-69
2022/08/21 08:12:22;;;;;;;6.97;2.45;;;26.00;99.10;;;;;;5044646;28;20410;-69
2022/08/21 08:14:47;;;;;;;8.05;2.97;;;26.40;95.80;;;;;;5042602;28;20047;-70
2022/08/21 08:17:13;;;;;;;11.20;2.63;;;26.60;94.10;;;;;;5044630;28;20044;-69
2022/08/21 08:19:39;;;;;;;8.45;2.45;;;26.80;92.60;;;;;;5032784;28;20416;-70
2022/08/21 08:22:15;;;;;;;7.90;2.50;;;27.00;91.60;;;;;;5039262;28;20041;-69
2022/08/21 08:24:42;;;;;;;8.80;2.40;;;27.30;90.90;;;;;;5044251;28;20040;-69
2022/08/21 08:27:07;;;;;;;8.20;2.15;;;27.40;88.20;;;;;;5037366;28;20585;-69
2022/08/21 08:29:33;;;;;;;7.00;2.10;;;27.50;86.30;;;;;;5043057;28;20039;-70
2022/08/21 08:31:59;;;;;;;7.40;2.17;;;27.80;85.30;;;;;;5043156;28;20115;-70
2022/08/21 08:34:25;;;;;;;11.70;2.55;;;28.10;83.70;;;;;;5044443;28;20044;-69
2022/08/21 08:36:50;;;;;;;7.05;2.28;;;28.30;79.70;;;;;;5048178;28;20037;-69
2022/08/21 08:39:16;;;;;;;7.35;2.38;;;28.50;78.10;;;;;;5045933;28;20787;-69
2022/08/21 08:41:44;;;;;;;6.70;1.88;;;28.70;75.70;;;;;;5040298;28;20055;-70
2022/08/21 08:44:10;;;;;;;9.57;1.80;;;28.80;73.30;;;;;;5041153;28;20040;-70
2022/08/21 08:46:50;;;;;;;29.13;26.38;;;28.70;70.70;;;;;;5057535;28;20040;-70
2022/08/21 08:49:27;;;;;;;6.97;2.13;;;28.70;72.20;;;;;;5036545;28;20099;-70
2022/08/21 08:52:04;;;;;;;5.65;1.40;;;28.90;69.60;;;;;;5031868;28;20415;-70
2022/08/21 08:54:39;;;;;;;8.70;1.75;;;29.10;68.90;;;;;;5025729;28;20052;-70
2022/08/21 08:57:10;;;;;;;5.80;1.63;;;29.20;67.60;;;;;;5042492;28;20487;-70
2022/08/21 08:59:45;;;;;;;6.10;1.10;;;29.30;67.30;;;;;;5027623;28;20102;-69
2022/08/21 09:02:12;;;;;;;6.97;1.38;;;29.40;66.00;;;;;;5028322;28;20467;-70
2022/08/21 09:04:38;;;;;;;6.68;1.63;;;29.60;66.90;;;;;;5042211;28;20037;-69
2022/08/21 09:07:28;;;;;;;5.55;1.42;;;29.60;65.20;;;;;;5038796;28;20044;-69
2022/08/21 09:10:12;;;;;;;6.20;1.15;;;29.70;65.40;;;;;;5040106;28;20043;-69
2022/08/21 09:12:45;;;;;;;6.63;1.25;;;29.70;64.60;;;;;;5051827;28;20044;-69
2022/08/21 09:15:30;;;;;;;5.88;1.15;;;29.80;63.90;;;;;;5034629;28;20059;-69
2022/08/21 09:18:12;;;;;;;81.97;74.72;;;29.90;64.30;;;;;;5044242;28;20053;-69
2022/08/21 09:21:12;;;;;;;7.40;3.30;;;30.00;62.80;;;;;;5043555;28;20400;-69
2022/08/21 09:23:48;;;;;;;6.38;1.77;;;30.10;62.50;;;;;;5049000;28;20966;-70
2022/08/21 09:26:24;;;;;;;4.50;1.33;;;30.30;63.70;;;;;;5047499;28;20037;-70
2022/08/21 09:28:53;;;;;;;8.73;1.70;;;30.40;64.20;;;;;;5049059;28;20110;-71
2022/08/21 09:31:29;;;;;;;5.63;1.50;;;30.60;63.00;;;;;;5040982;28;20044;-70
2022/08/21 09:34:07;;;;;;;5.90;1.42;;;30.40;62.90;;;;;;5064406;28;20041;-70
2022/08/21 09:36:51;;;;;;;5.50;1.42;;;30.40;61.30;;;;;;5040749;28;20534;-69
2022/08/21 09:39:29;;;;;;;8.25;1.73;;;30.20;60.20;;;;;;5048229;28;20041;-69
2022/08/21 09:42:06;;;;;;;6.40;1.63;;;29.40;60.40;;;;;;5050423;28;20500;-70
2022/08/21 09:44:39;;;;;;;7.72;1.35;;;28.80;64.40;;;;;;5048243;28;20037;-71
2022/08/21 09:47:06;;;;;;;5.35;1.58;;;29.00;67.00;;;;;;5030521;28;20062;-69
2022/08/21 09:49:35;;;;;;;7.03;1.67;;;29.40;64.30;;;;;;5048197;28;20037;-70
2022/08/21 09:52:03;;;;;;;11.90;9.25;;;29.00;64.70;;;;;;5041838;28;20070;-69
2022/08/21 09:54:34;;;;;;;6.68;2.03;;;28.90;64.60;;;;;;5046651;28;20551;-69
2022/08/21 09:59:53;;;;;;;8.57;1.67;;;28.90;65.50;;;;;;5056607;28;20036;-69
2022/08/21 10:02:27;;;;;;;5.55;1.27;;;29.20;66.20;;;;;;5060364;28;20064;-70
2022/08/21 10:04:57;;;;;;;8.02;1.30;;;29.50;64.50;;;;;;5041596;28;20036;-69
2022/08/21 10:07:25;;;;;;;8.38;1.73;;;29.00;64.00;;;;;;5046731;28;20076;-69
2022/08/21 10:10:07;;;;;;;8.40;1.70;;;28.70;65.20;;;;;;5059888;28;20048;-70
2022/08/21 10:12:47;;;;;;;5.18;1.42;;;28.60;64.90;;;;;;5048310;28;20048;-70
2022/08/21 10:15:38;;;;;;;89.10;80.65;;;28.90;66.30;;;;;;5045020;28;20045;-70
2022/08/21 10:18:20;;;;;;;8.52;4.03;;;29.40;66.50;;;;;;5024540;28;20384;-70
2022/08/21 10:21:01;;;;;;;4.20;1.20;;;29.90;66.00;;;;;;5046691;28;20650;-69
2022/08/21 10:23:42;;;;;;;4.78;1.23;;;30.20;61.70;;;;;;5027895;28;20485;-70
2022/08/21 10:26:49;;;;;;;6.45;1.58;;;29.70;62.40;;;;;;5065125;28;20326;-71
2022/08/21 10:29:40;;;;;;;7.30;1.48;;;29.10;63.60;;;;;;4949519;28;20038;-68
2022/08/21 10:32:43;;;;;;;4.90;1.30;;;28.20;64.50;;;;;;5025831;28;20079;-69
2022/08/21 10:35:21;;;;;;;5.43;1.43;;;27.60;65.50;;;;;;5062367;28;20037;-70
2022/08/21 10:38:05;;;;;;;7.22;1.65;;;27.60;65.80;;;;;;5043000;28;20037;-69
2022/08/21 10:41:10;;;;;;;5.00;1.10;;;28.00;64.50;;;;;;5046033;28;20394;-70
2022/08/21 10:43:59;;;;;;;5.75;1.80;;;28.50;64.00;;;;;;4927053;28;20051;-69
2022/08/21 10:46:49;;;;;;;8.18;1.40;;;28.30;62.80;;;;;;4942235;28;20063;-69
2022/08/21 10:49:21;;;;;;;7.70;1.25;;;27.90;64.20;;;;;;5022652;28;20127;-69
2022/08/21 10:52:06;;;;;;;6.25;1.52;;;27.40;64.80;;;;;;5046990;28;20040;-69
2022/08/21 10:54:42;;;;;;;6.82;1.52;;;27.00;65.70;;;;;;5045242;28;20064;-66
2022/08/21 10:57:38;;;;;;;9.70;1.85;;;26.40;66.80;;;;;;5061648;28;20068;-67
2022/08/21 11:00:11;;;;;;;7.18;1.73;;;26.10;68.40;;;;;;5044151;28;20052;-67
2022/08/21 11:02:51;;;;;;;6.10;1.50;;;25.90;71.40;;;;;;5041951;28;20079;-67
2022/08/21 11:05:47;;;;;;;5.15;1.20;;;26.50;72.50;;;;;;5034104;28;20041;-67
2022/08/21 11:08:29;;;;;;;4.05;1.30;;;27.10;70.30;;;;;;5053941;28;20451;-66
2022/08/21 11:11:05;;;;;;;7.68;1.60;;;27.10;68.00;;;;;;5054931;28;20060;-66
2022/08/21 11:14:06;;;;;;;9.25;1.42;;;26.80;67.90;;;;;;5042905;28;20040;-67
2022/08/21 11:16:39;;;;;;;6.63;1.52;;;26.60;69.20;;;;;;5023087;28;20060;-66
2022/08/21 11:19:31;;;;;;;;;;;26.90;70.60;;;;;;5024614;28;20155;-68
2022/08/21 11:22:34;;;;;;;7.13;1.10;;;27.60;67.80;;;;;;5055599;28;19970;-66
2022/08/21 11:25:08;;;;;;;6.25;1.33;;;28.40;64.50;;;;;;5046742;28;20090;-66
2022/08/21 11:27:43;;;;;;;6.28;1.65;;;28.80;64.60;;;;;;5064507;28;20052;-66
2022/08/21 11:30:09;;;;;;;4.72;1.00;;;29.30;63.70;;;;;;5061725;28;20056;-67
2022/08/21 11:33:07;;;;;;;5.68;1.15;;;29.70;62.30;;;;;;5057752;28;20048;-66
2022/08/21 11:35:38;;;;;;;5.13;1.27;;;30.10;56.20;;;;;;5061505;28;20037;-66
2022/08/21 11:38:30;;;;;;;5.82;1.38;;;30.30;58.20;;;;;;5039878;28;20063;-66
2022/08/21 11:41:24;;;;;;;6.38;1.25;;;30.40;58.10;;;;;;5044713;28;20040;-66
2022/08/21 11:44:02;;;;;;;5.93;1.45;;;30.70;59.20;;;;;;5052526;28;20618;-65
2022/08/21 11:46:36;;;;;;;5.55;1.02;;;30.90;58.40;;;;;;5035288;28;20048;-66
2022/08/21 11:49:24;;;;;;;8.07;1.42;;;30.90;56.80;;;;;;5041633;28;20561;-66
2022/08/21 11:52:06;;;;;;;4.45;1.23;;;30.70;56.20;;;;;;5066206;28;20044;-67
2022/08/21 11:55:11;;;;;;;5.78;1.35;;;30.60;59.20;;;;;;5062409;28;20501;-66
2022/08/21 11:57:53;;;;;;;6.43;1.27;;;30.00;57.20;;;;;;5009457;28;20159;-67
2022/08/21 12:00:26;;;;;;;5.77;1.33;;;28.90;58.20;;;;;;5061403;28;20043;-66
2022/08/21 12:02:58;;;;;;;6.15;1.20;;;28.30;60.40;;;;;;5046407;28;20352;-66
2022/08/21 12:05:32;;;;;;;4.00;1.20;;;27.80;60.80;;;;;;5065299;28;20176;-66
2022/08/21 12:08:29;;;;;;;5.50;1.20;;;27.50;62.30;;;;;;5049538;28;20043;-66
2022/08/21 12:11:04;;;;;;;6.43;1.42;;;27.10;63.30;;;;;;5046722;28;20067;-67
2022/08/21 12:13:32;;;;;;;7.57;1.50;;;26.70;64.00;;;;;;5065317;28;20089;-67
2022/08/21 12:16:14;;;;;;;4.82;1.30;;;26.40;65.00;;;;;;5045151;28;20136;-66
2022/08/21 12:18:40;;;;;;;4.32;1.20;;;26.40;66.60;;;;;;5064641;28;20119;-66
2022/08/21 12:21:27;;;;;;;5.75;1.35;;;26.30;66.20;;;;;;5050717;28;20044;-67
2022/08/21 12:24:36;;;;;;;5.78;1.70;;;26.70;66.30;;;;;;5054578;28;20059;-66
2022/08/21 12:27:20;;;;;;;6.57;1.70;;;27.50;67.50;;;;;;5057223;28;20112;-67
2022/08/21 12:29:59;;;;;;;8.90;1.55;;;28.50;65.60;;;;;;5062646;28;20037;-68
2022/08/21 12:32:41;;;;;;;7.45;1.25;;;29.20;62.20;;;;;;5065485;28;20452;-68
2022/08/21 12:35:21;;;;;;;5.85;1.10;;;29.60;60.60;;;;;;5040967;28;20032;-67
2022/08/21 12:38:04;;;;;;;5.82;1.30;;;29.90;60.30;;;;;;5066220;28;20112;-68
2022/08/21 12:40:40;;;;;;;4.25;1.17;;;30.10;59.20;;;;;;5062891;28;20045;-69
2022/08/21 12:43:22;;;;;;;5.22;1.30;;;30.30;60.40;;;;;;5039464;28;20037;-66
2022/08/21 12:45:51;;;;;;;6.75;1.23;;;30.50;57.40;;;;;;5063822;28;20029;-66
2022/08/21 12:48:32;;;;;;;4.28;1.00;;;30.50;59.10;;;;;;5051734;28;20345;-65
2022/08/21 12:51:27;;;;;;;6.45;1.60;;;30.60;58.10;;;;;;5054798;28;20040;-66
2022/08/21 12:53:58;;;;;;;6.38;1.40;;;30.60;58.20;;;;;;5039888;28;20102;-68
2022/08/21 12:56:28;;;;;;;4.47;1.20;;;30.90;57.70;;;;;;5065302;28;20044;-66
2022/08/21 12:59:03;;;;;;;4.72;1.23;;;31.30;56.80;;;;;;5068391;28;20519;-66
2022/08/21 13:01:51;;;;;;;7.63;1.75;;;31.60;56.00;;;;;;5066119;28;20055;-66
2022/08/21 13:04:39;;;;;;;5.35;1.38;;;31.80;56.20;;;;;;5066374;28;20029;-66
2022/08/21 13:07:12;;;;;;;5.70;1.70;;;31.50;55.70;;;;;;5066659;28;20072;-66